Time;durP1;ratioP1;P1;durP2;ratioP2;P2;SDS_P1;SDS_P2;PMS_P1;PMS_P2;Temp;Humidity;BMP_temperature;BMP_pressure;BME280_temperature;BME280_humidity;BME280_pressure;Samples;Min_cycle;Max_cycle;Signal;HPM_P1;HPM_P2
2022/06/24 00:01:14;;;;;;;3.10;2.03;;;;;;;21.21;56.47;100815.41;5022845;28;20064;-73
2022/06/24 00:03:43;;;;;;;8.05;2.22;;;;;;;21.16;56.36;100826.28;5025699;28;20108;-73
2022/06/24 00:06:17;;;;;;;11.82;2.17;;;;;;;21.07;56.97;100819.41;5033782;28;20024;-73
2022/06/24 00:08:47;;;;;;;5.65;2.38;;;;;;;21.02;57.08;100822.00;5028996;28;20033;-73
2022/06/24 00:11:12;;;;;;;9.38;2.35;;;;;;;21.05;56.79;100827.03;5018858;28;20105;-72
2022/06/24 00:13:39;;;;;;;4.28;2.00;;;;;;;21.03;56.76;100818.16;5015045;28;20025;-72
2022/06/24 00:16:04;;;;;;;3.78;2.15;;;;;;;20.97;57.08;100819.06;5020903;28;20029;-72
2022/06/24 00:18:30;;;;;;;6.95;2.75;;;;;;;20.96;56.81;100814.63;5023823;28;20018;-72
2022/06/24 00:20:55;;;;;;;6.13;2.35;;;;;;;20.88;56.92;100814.94;5022149;28;20022;-72
2022/06/24 00:23:22;;;;;;;3.03;2.10;;;;;;;20.89;57.14;100805.63;5023842;28;20026;-72
2022/06/24 00:25:53;;;;;;;5.97;2.20;;;;;;;20.83;57.14;100808.19;5024870;28;20053;-74
2022/06/24 00:28:24;;;;;;;3.72;2.15;;;;;;;20.96;56.88;100809.13;5023496;28;20032;-73
2022/06/24 00:30:51;;;;;;;2.88;2.20;;;;;;;20.85;57.36;100805.22;5022849;28;20040;-74
2022/06/24 00:33:19;;;;;;;3.45;1.90;;;;;;;20.64;57.55;100798.22;5023428;28;20155;-73
2022/06/24 00:35:49;;;;;;;8.90;2.08;;;;;;;20.64;57.34;100798.22;5022984;28;20021;-73
2022/06/24 00:38:34;;;;;;;10.00;2.42;;;;;;;20.54;57.71;100792.44;5014429;28;20017;-73
2022/06/24 00:41:05;;;;;;;6.32;2.72;;;;;;;20.69;56.88;100801.16;5022621;28;20107;-73
2022/06/24 00:43:35;;;;;;;6.25;3.08;;;;;;;20.70;56.86;100797.34;5023074;28;20028;-73
2022/06/24 00:46:16;;;;;;;7.70;4.23;;;;;;;20.72;56.94;100788.84;5024935;28;20029;-73
2022/06/24 00:48:47;;;;;;;6.93;5.05;;;;;;;20.67;56.93;100791.44;5022775;28;20279;-71
2022/06/24 00:51:12;;;;;;;6.63;4.03;;;;;;;20.57;57.30;100791.97;5023518;28;20030;-71
2022/06/24 00:53:42;;;;;;;5.18;4.03;;;;;;;20.54;57.44;100781.41;5023673;28;20049;-72
2022/06/24 00:56:10;;;;;;;6.68;3.95;;;;;;;20.52;57.25;100783.53;5022247;28;20116;-72
2022/06/24 00:58:37;;;;;;;4.93;3.28;;;;;;;20.60;57.09;100780.47;5023316;28;20021;-72
2022/06/24 01:01:02;;;;;;;7.88;3.17;;;;;;;20.43;57.69;100779.38;5022256;28;20021;-72
2022/06/24 01:03:42;;;;;;;4.57;2.90;;;;;;;20.43;57.38;100779.38;5023419;28;20029;-72
2022/06/24 01:06:08;;;;;;;7.00;2.47;;;;;;;20.42;57.01;100777.69;5023507;28;20021;-72
2022/06/24 01:08:34;;;;;;;3.45;2.85;;;;;;;20.35;57.51;100774.16;5023467;28;20031;-72
2022/06/24 01:11:00;;;;;;;3.80;2.53;;;;;;;20.36;57.62;100773.09;5022125;28;20029;-72
2022/06/24 01:13:26;;;;;;;7.15;2.58;;;;;;;20.07;58.44;100764.41;5022640;28;20056;-72
2022/06/24 01:15:52;;;;;;;5.28;3.05;;;;;;;20.26;57.49;100763.41;5024109;28;20061;-72
2022/06/24 01:18:17;;;;;;;6.93;2.53;;;;;;;20.13;58.27;100758.03;5025757;28;20083;-72
2022/06/24 01:20:43;;;;;;;5.10;2.40;;;;;;;19.96;58.28;100756.91;5026756;28;20040;-72
2022/06/24 01:23:08;;;;;;;6.85;3.00;;;;;;;19.91;58.54;100748.50;5026447;28;20025;-72
2022/06/24 01:25:34;;;;;;;5.15;2.50;;;;;;;19.99;58.41;100750.97;5025743;28;20068;-72
2022/06/24 01:27:59;;;;;;;4.30;2.50;;;;;;;19.97;58.21;100751.19;5026130;28;20025;-72
2022/06/24 01:30:26;;;;;;;5.05;2.40;;;;;;;20.01;58.13;100743.31;5026357;28;20068;-72
2022/06/24 01:32:52;;;;;;;4.50;2.47;;;;;;;19.79;58.71;100740.97;5025908;28;20048;-72
2022/06/24 01:35:17;;;;;;;4.18;2.58;;;;;;;19.92;58.31;100739.19;5040556;28;20467;-72
2022/06/24 01:37:42;;;;;;;4.80;2.55;;;;;;;19.70;58.90;100731.31;5025662;28;20021;-72
2022/06/24 01:40:08;;;;;;;4.47;2.08;;;;;;;19.78;58.55;100739.28;5024649;28;20021;-72
2022/06/24 01:42:34;;;;;;;9.15;2.42;;;;;;;19.72;58.81;100729.19;5023476;28;20032;-73
2022/06/24 01:44:59;;;;;;;3.80;2.40;;;;;;;19.55;59.57;100725.22;5024255;28;20057;-72
2022/06/24 01:47:25;;;;;;;7.80;2.80;;;;;;;19.64;58.94;100732.19;5023527;28;20023;-72
2022/06/24 01:49:50;;;;;;;4.63;2.67;;;;;;;19.74;58.41;100738.03;5024179;28;20025;-72
2022/06/24 01:52:16;;;;;;;6.00;2.40;;;;;;;19.75;58.42;100728.72;5023096;28;20095;-72
2022/06/24 01:54:41;;;;;;;4.03;2.60;;;;;;;19.64;58.63;100737.69;5024344;28;20029;-72
2022/06/24 01:57:07;;;;;;;4.60;2.50;;;;;;;19.64;58.81;100725.88;5024415;28;20123;-72
2022/06/24 01:59:32;;;;;;;7.53;2.65;;;;;;;19.74;58.19;100718.81;5025171;28;20104;-72
2022/06/24 02:01:57;;;;;;;8.57;2.72;;;;;;;19.72;58.07;100729.19;5024957;28;20030;-73
2022/06/24 02:04:23;;;;;;;5.13;2.50;;;;;;;19.48;59.15;100721.69;5024499;28;20101;-72
2022/06/24 02:06:49;;;;;;;6.40;2.40;;;;;;;19.51;58.91;100721.25;5023565;28;20033;-72
2022/06/24 02:09:16;;;;;;;3.67;2.22;;;;;;;19.50;59.06;100716.84;5024895;28;20021;-72
2022/06/24 02:14:27;;;;;;;5.22;2.15;;;;;;;19.44;58.82;100704.00;5025188;28;20026;-71
2022/06/24 02:16:52;;;;;;;3.95;2.30;;;;;;;19.30;59.50;100707.84;5023843;28;20021;-71
2022/06/24 02:19:18;;;;;;;9.20;2.28;;;;;;;19.34;59.34;100698.13;5027241;28;20017;-71
2022/06/24 02:21:44;;;;;;;3.78;2.38;;;;;;;19.42;58.87;100695.09;5028826;28;20033;-72
2022/06/24 02:24:11;;;;;;;7.25;2.90;;;;;;;19.25;59.28;100684.66;5026636;28;20075;-72
2022/06/24 02:26:36;;;;;;;6.38;2.38;;;;;;;19.27;59.42;100683.59;5028147;28;20040;-72
2022/06/24 02:29:02;;;;;;;8.07;2.47;;;;;;;19.25;59.11;100689.31;5026734;28;20085;-74
2022/06/24 02:31:27;;;;;;;10.05;2.45;;;;;;;19.28;58.93;100688.03;5023813;28;20059;-72
2022/06/24 02:33:53;;;;;;;5.63;2.65;;;;;;;19.24;59.09;100682.16;5031302;28;20037;-72
2022/06/24 02:36:18;;;;;;;6.55;2.42;;;;;;;19.04;59.65;100676.75;5025534;28;20018;-74
2022/06/24 02:38:44;;;;;;;4.80;2.72;;;;;;;19.29;58.88;100684.22;5019913;28;20014;-72
2022/06/24 02:41:09;;;;;;;3.20;2.50;;;;;;;19.24;59.07;100672.00;5021219;28;20021;-72
2022/06/24 02:43:37;;;;;;;6.40;2.65;;;;;;;19.19;59.09;100674.56;5011910;28;20022;-72
2022/06/24 02:46:07;;;;;;;8.23;2.55;;;;;;;19.12;59.20;100673.75;5011713;28;20054;-72
2022/06/24 02:48:35;;;;;;;3.42;2.50;;;;;;;19.09;59.42;100668.69;5006736;28;20553;-72
2022/06/24 02:51:02;;;;;;;4.72;2.60;;;;;;;19.07;59.14;100659.84;5004580;28;20604;-72
2022/06/24 02:53:29;;;;;;;4.05;2.25;;;;;;;19.03;59.36;100669.56;5022883;28;20079;-72
2022/06/24 02:56:03;;;;;;;12.85;2.78;;;;;;;19.25;58.50;100668.19;5025262;28;20029;-72
2022/06/24 02:58:30;;;;;;;5.28;2.50;;;;;;;19.10;59.04;100659.38;5027553;28;20013;-72
2022/06/24 03:00:56;;;;;;;8.07;2.63;;;;;;;19.11;58.93;100655.63;5028047;28;20025;-72
2022/06/24 03:03:22;;;;;;;13.88;2.47;;;;;;;19.21;58.73;100653.22;5025052;28;20021;-72
2022/06/24 03:05:49;;;;;;;5.63;2.38;;;;;;;19.24;58.67;100654.69;5027316;28;20033;-73
2022/06/24 03:08:16;;;;;;;7.40;2.28;;;;;;;18.98;58.98;100644.72;5027760;28;20105;-72
2022/06/24 03:10:42;;;;;;;6.15;2.60;;;;;;;18.85;59.54;100642.03;5025324;28;20029;-73
2022/06/24 03:13:08;;;;;;;11.70;2.95;;;;;;;18.94;59.17;100638.81;5026233;28;20040;-73
2022/06/24 03:15:33;;;;;;;5.20;2.67;;;;;;;18.95;59.39;100650.63;5026756;28;20091;-73
2022/06/24 03:17:59;;;;;;;3.83;2.28;;;;;;;18.93;58.80;100636.28;5027526;28;20025;-71
2022/06/24 03:20:25;;;;;;;8.05;2.53;;;;;;;18.87;59.16;100648.13;5026887;28;20028;-71
2022/06/24 03:22:50;;;;;;;5.97;2.70;;;;;;;19.03;58.95;100644.88;5025455;28;20029;-73
2022/06/24 03:25:16;;;;;;;4.28;2.28;;;;;;;18.98;58.73;100639.22;5026625;28;20030;-73
2022/06/24 03:27:42;;;;;;;3.15;2.42;;;;;;;19.02;58.72;100629.47;5020569;28;20026;-73
2022/06/24 03:30:09;;;;;;;3.90;2.35;;;;;;;19.24;57.94;100625.34;5025060;28;20026;-73
2022/06/24 03:32:35;;;;;;;7.63;2.28;;;;;;;19.21;58.07;100623.03;5026191;28;20104;-72
2022/06/24 03:35:01;;;;;;;7.70;2.53;;;;;;;19.19;58.20;100619.66;5025285;28;20116;-72
2022/06/24 03:37:28;;;;;;;6.05;2.30;;;;;;;19.03;58.67;100620.16;5026991;28;20017;-73
2022/06/24 03:39:54;;;;;;;7.57;2.45;;;;;;;19.06;58.34;100608.78;5026842;28;20068;-73
2022/06/24 03:42:19;;;;;;;4.32;2.60;;;;;;;19.13;58.25;100603.25;5025120;28;20478;-72
2022/06/24 03:44:44;;;;;;;7.20;2.28;;;;;;;19.06;58.63;100614.25;5022237;28;20107;-72
2022/06/24 03:47:09;;;;;;;5.82;2.35;;;;;;;19.29;57.48;100601.84;5024574;28;20065;-73
2022/06/24 03:49:35;;;;;;;11.15;2.42;;;;;;;19.33;57.78;100595.72;5025864;28;20041;-72
2022/06/24 03:52:00;;;;;;;5.45;2.65;;;;;;;19.10;58.11;100593.53;5025033;28;20022;-72
2022/06/24 03:54:26;;;;;;;3.35;2.38;;;;;;;19.17;58.24;100588.88;5025137;28;20110;-73
2022/06/24 03:56:51;;;;;;;10.95;2.83;;;;;;;19.20;58.07;100577.44;5026619;28;20032;-73
2022/06/24 03:59:17;;;;;;;6.00;2.72;;;;;;;19.46;57.53;100575.53;5025802;28;20030;-72
2022/06/24 04:01:42;;;;;;;5.50;2.30;;;;;;;19.44;57.43;100577.69;5025076;28;20021;-72
2022/06/24 04:04:09;;;;;;;4.28;2.60;;;;;;;19.37;57.83;100572.25;5024940;28;20117;-72
2022/06/24 04:06:34;;;;;;;6.47;2.20;;;;;;;19.57;56.98;100572.06;5025702;28;20025;-73
2022/06/24 04:08:59;;;;;;;4.55;2.75;;;;;;;19.57;56.88;100565.75;5025701;28;20035;-72
2022/06/24 04:11:25;;;;;;;4.35;2.40;;;;;;;19.60;57.23;100568.91;5022106;28;20037;-72
2022/06/24 04:13:50;;;;;;;10.18;2.70;;;;;;;19.75;56.83;100566.63;5022005;28;20028;-72
2022/06/24 04:16:16;;;;;;;5.38;2.72;;;;;;;19.79;56.53;100565.13;5027108;28;20108;-72
2022/06/24 04:18:42;;;;;;;5.90;2.33;;;;;;;19.83;56.50;100564.69;5024925;28;20070;-73
2022/06/24 04:21:11;;;;;;;6.53;2.63;;;;;;;19.93;56.38;100562.25;5027096;28;20025;-72
2022/06/24 04:23:37;;;;;;;10.68;2.47;;;;;;;19.89;56.21;100552.78;5024820;28;20390;-73
2022/06/24 04:26:03;;;;;;;8.10;2.88;;;;;;;20.15;55.66;100558.00;5024488;28;20025;-72
2022/06/24 04:28:28;;;;;;;7.20;2.67;;;;;;;20.19;55.36;100553.69;5026458;28;20926;-72
2022/06/24 04:30:54;;;;;;;11.60;2.72;;;;;;;20.18;55.36;100560.28;5025654;28;20026;-73
2022/06/24 04:33:19;;;;;;;7.00;2.47;;;;;;;20.16;55.10;100559.69;5025688;28;20052;-73
2022/06/24 04:35:45;;;;;;;7.88;2.45;;;;;;;20.42;54.82;100560.44;5042082;28;20478;-74
2022/06/24 04:38:10;;;;;;;5.97;2.75;;;;;;;20.53;54.52;100554.16;5024622;28;20018;-73
2022/06/24 04:40:35;;;;;;;8.57;2.78;;;;;;;20.57;54.55;100544.38;5026407;28;20048;-73
2022/06/24 04:43:01;;;;;;;4.90;2.35;;;;;;;20.66;54.35;100542.97;5024420;28;20167;-73
2022/06/24 04:45:26;;;;;;;7.78;2.60;;;;;;;20.78;54.01;100541.13;5020467;28;20021;-74
2022/06/24 04:47:52;;;;;;;5.00;2.78;;;;;;;20.67;54.21;100543.81;5024916;28;20329;-73
2022/06/24 04:50:18;;;;;;;5.43;2.42;;;;;;;20.77;54.24;100544.09;5025907;28;20037;-73
2022/06/24 04:52:43;;;;;;;10.52;3.00;;;;;;;20.58;54.36;100546.06;5029127;28;20025;-73
2022/06/24 04:55:08;;;;;;;6.57;2.83;;;;;;;20.80;53.95;100539.00;5025750;28;20025;-73
2022/06/24 04:57:34;;;;;;;7.32;3.10;;;;;;;20.77;54.08;100546.88;5019994;28;20066;-73
2022/06/24 04:59:59;;;;;;;10.32;3.10;;;;;;;21.01;53.61;100534.03;5025718;28;20029;-73
2022/06/24 05:02:25;;;;;;;9.52;2.70;;;;;;;20.90;53.79;100532.06;5028079;28;20018;-73
2022/06/24 05:04:50;;;;;;;5.40;2.47;;;;;;;20.89;53.65;100535.91;5028647;28;20025;-73
2022/06/24 05:07:16;;;;;;;3.40;2.40;;;;;;;20.95;53.68;100533.06;5027701;28;20068;-73
2022/06/24 05:09:42;;;;;;;7.18;2.75;;;;;;;20.99;53.49;100522.38;5028349;28;20127;-73
2022/06/24 05:12:08;;;;;;;6.43;2.50;;;;;;;21.05;53.36;100525.03;5025246;28;20021;-72
2022/06/24 05:14:34;;;;;;;7.07;2.58;;;;;;;21.23;52.95;100524.13;5028609;28;20026;-72
2022/06/24 05:16:59;;;;;;;8.13;2.85;;;;;;;21.35;52.72;100525.03;5029781;28;20033;-72
2022/06/24 05:19:25;;;;;;;6.95;2.90;;;;;;;21.24;53.19;100523.06;5028068;28;20025;-72
2022/06/24 05:21:50;;;;;;;7.63;2.83;;;;;;;21.30;52.84;100515.78;5027707;28;20027;-72
2022/06/24 05:24:16;;;;;;;13.48;4.07;;;;;;;21.37;52.72;100511.84;5028630;28;20032;-72
2022/06/24 05:26:42;;;;;;;5.05;2.67;;;;;;;21.43;52.32;100514.72;5027210;28;20021;-72
2022/06/24 05:29:08;;;;;;;10.73;3.05;;;;;;;21.36;52.60;100509.34;5026040;28;20034;-72
2022/06/24 05:31:33;;;;;;;6.25;2.78;;;;;;;21.37;52.55;100506.34;5023000;28;20017;-74
2022/06/24 05:33:58;;;;;;;12.55;2.75;;;;;;;21.27;52.83;100508.81;5024750;28;20064;-73
2022/06/24 05:36:24;;;;;;;7.70;2.72;;;;;;;21.62;52.71;100508.84;5023309;28;20217;-74
2022/06/24 05:38:50;;;;;;;4.45;2.85;;;;;;;21.57;52.32;100505.13;5021811;28;20383;-74
2022/06/24 05:41:16;;;;;;;5.65;2.85;;;;;;;21.62;52.08;100497.00;5023460;28;20029;-74
2022/06/24 05:43:43;;;;;;;6.38;2.85;;;;;;;21.67;52.16;100499.88;5023376;28;20036;-74
2022/06/24 05:46:09;;;;;;;4.78;3.03;;;;;;;21.68;52.22;100496.03;5022194;28;20061;-74
2022/06/24 05:48:35;;;;;;;4.18;2.55;;;;;;;21.71;52.28;100495.53;5025003;28;20037;-74
2022/06/24 05:51:10;;;;;;;6.50;3.08;;;;;;;21.73;52.13;100493.41;5018302;28;20036;-74
2022/06/24 05:56:20;;;;;;;3.92;2.88;;;;;;;21.81;52.05;100486.69;5024822;28;20029;-73
2022/06/24 05:58:46;;;;;;;9.60;2.83;;;;;;;22.01;51.03;100483.53;5016710;28;20014;-73
2022/06/24 06:01:11;;;;;;;7.55;2.88;;;;;;;22.03;51.08;100481.34;5021100;28;20108;-73
2022/06/24 06:03:37;;;;;;;5.60;2.80;;;;;;;22.12;51.11;100474.44;5020808;28;20029;-73
2022/06/24 06:06:03;;;;;;;6.32;3.42;;;;;;;22.43;50.49;100470.34;5018633;28;20029;-73
2022/06/24 06:08:28;;;;;;;11.52;3.42;;;;;;;22.35;50.70;100474.34;5008937;28;20449;-73
2022/06/24 06:10:54;;;;;;;8.30;3.03;;;;;;;22.41;50.11;100473.34;5006633;28;20052;-73
2022/06/24 06:13:19;;;;;;;8.10;2.67;;;;;;;22.56;49.81;100460.94;5015267;28;20053;-73
2022/06/24 06:15:45;;;;;;;8.35;2.92;;;;;;;22.45;50.37;100458.00;5008479;28;20034;-73
2022/06/24 06:18:10;;;;;;;10.48;3.45;;;;;;;22.67;49.63;100465.56;5014997;28;20018;-73
2022/06/24 06:20:37;;;;;;;8.80;2.85;;;;;;;22.86;49.48;100464.28;5012006;28;20072;-73
2022/06/24 06:23:02;;;;;;;11.98;3.00;;;;;;;22.77;49.53;100454.72;5015226;28;20120;-73
2022/06/24 06:25:27;;;;;;;6.80;2.55;;;;;;;22.87;49.43;100454.91;4991998;28;20026;-73
2022/06/24 06:27:53;;;;;;;7.65;3.28;;;;;;;22.74;49.53;100463.47;4994266;28;20105;-73
2022/06/24 06:30:18;;;;;;;4.85;3.08;;;;;;;22.75;49.12;100462.38;4999464;28;20025;-73
2022/06/24 06:32:44;;;;;;;7.35;2.90;;;;;;;22.79;49.08;100463.59;5000491;28;20117;-73
2022/06/24 06:35:09;;;;;;;5.95;2.78;;;;;;;23.12;48.74;100456.44;5004226;28;20021;-73
2022/06/24 06:37:35;;;;;;;8.02;3.47;;;;;;;23.45;47.88;100456.41;4997255;28;20021;-73
2022/06/24 06:40:00;;;;;;;10.25;4.28;;;;;;;23.55;47.58;100455.72;4987932;28;20089;-73
2022/06/24 06:42:26;;;;;;;11.63;4.07;;;;;;;23.60;47.52;100468.78;4997824;28;20029;-73
2022/06/24 06:44:51;;;;;;;9.68;2.90;;;;;;;23.09;47.75;100484.56;5007363;28;20129;-73
2022/06/24 06:47:17;;;;;;;9.32;3.50;;;;;;;23.14;47.57;100487.41;5015969;28;20075;-73
2022/06/24 06:49:42;;;;;;;7.32;3.30;;;;;;;23.47;47.20;100487.41;5013177;28;20490;-73
2022/06/24 06:52:08;;;;;;;9.73;3.45;;;;;;;23.67;46.88;100486.03;4998188;28;20095;-73
2022/06/24 06:54:34;;;;;;;7.85;3.10;;;;;;;23.85;46.48;100488.50;5001000;28;20045;-74
2022/06/24 06:56:59;;;;;;;6.57;2.83;;;;;;;23.67;46.51;100472.22;5001612;28;20155;-73
2022/06/24 06:59:25;;;;;;;8.95;2.90;;;;;;;23.52;46.89;100484.69;5009443;28;20133;-73
2022/06/24 07:01:50;;;;;;;13.88;3.17;;;;;;;23.62;46.58;100472.16;5002457;28;20025;-73
2022/06/24 07:04:16;;;;;;;8.57;2.88;;;;;;;23.85;46.54;100477.47;5008177;28;20111;-73
2022/06/24 07:06:41;;;;;;;14.35;3.22;;;;;;;23.91;46.26;100470.91;5007341;28;20041;-73
2022/06/24 07:09:07;;;;;;;5.72;2.97;;;;;;;23.83;46.13;100479.66;5003397;28;20040;-73
2022/06/24 07:11:32;;;;;;;4.75;2.85;;;;;;;24.11;46.04;100475.84;5004057;28;20026;-73
2022/06/24 07:13:58;;;;;;;12.40;3.40;;;;;;;24.13;46.02;100472.88;5001553;28;20030;-73
2022/06/24 07:16:23;;;;;;;9.63;3.58;;;;;;;24.13;45.97;100464.56;5007996;28;20014;-74
2022/06/24 07:18:49;;;;;;;6.50;2.63;;;;;;;24.13;45.82;100472.88;5008359;28;20028;-74
2022/06/24 07:21:14;;;;;;;7.78;3.13;;;;;;;24.02;46.07;100467.19;5001234;28;20600;-73
2022/06/24 07:23:40;;;;;;;13.63;3.05;;;;;;;24.32;45.99;100460.34;5008992;28;20089;-73
2022/06/24 07:26:07;;;;;;;24.92;3.95;;;;;;;24.55;45.68;100454.53;5002990;28;20029;-74
2022/06/24 07:28:36;;;;;;;11.40;3.28;;;;;;;24.45;45.32;100460.00;4999110;28;20034;-74
2022/06/24 07:31:18;;;;;;;6.50;2.97;;;;;;;24.56;44.56;100460.91;5006546;28;20026;-74
2022/06/24 07:33:44;;;;;;;;;;;;;;;24.68;44.03;100452.47;5003164;28;20028;-74
2022/06/24 07:36:09;;;;;;;7.72;3.38;;;;;;;24.70;44.52;100450.25;5005344;28;19917;-74
2022/06/24 07:38:35;;;;;;;14.27;3.80;;;;;;;24.71;43.80;100440.84;5007837;28;20048;-73
2022/06/24 07:41:01;;;;;;;13.68;3.33;;;;;;;24.94;43.62;100440.53;5002154;28;20026;-73
2022/06/24 07:43:27;;;;;;;12.82;2.88;;;;;;;24.91;43.36;100446.59;5000178;28;20021;-73
2022/06/24 07:45:53;;;;;;;9.05;3.70;;;;;;;25.22;43.15;100450.47;5002432;28;20026;-74
2022/06/24 07:48:18;;;;;;;10.38;3.38;;;;;;;25.64;42.21;100453.25;5011516;28;20083;-72
2022/06/24 07:50:43;;;;;;;6.53;3.45;;;;;;;25.24;42.64;100433.59;5014395;28;20529;-74
2022/06/24 07:53:09;;;;;;;9.90;3.38;;;;;;;25.36;42.62;100436.97;4999013;28;20038;-74
2022/06/24 07:58:18;;;;;;;10.48;3.10;;;;;;;25.59;42.66;100436.59;5006388;28;20051;-73
2022/06/24 08:00:44;;;;;;;11.70;3.08;;;;;;;25.83;42.20;100430.66;5003076;28;20033;-73
2022/06/24 08:03:09;;;;;;;9.25;3.10;;;;;;;25.68;42.12;100423.88;5006849;28;20017;-73
2022/06/24 08:05:35;;;;;;;12.80;3.15;;;;;;;26.14;41.47;100426.88;5001822;28;20160;-73
2022/06/24 08:08:00;;;;;;;11.50;3.50;;;;;;;26.51;40.58;100425.91;4997910;28;20094;-73
2022/06/24 08:10:26;;;;;;;13.32;3.28;;;;;;;26.72;40.79;100422.03;4997863;28;20032;-73
2022/06/24 08:12:51;;;;;;;11.68;3.30;;;;;;;26.70;40.50;100413.16;5000558;28;20029;-73
2022/06/24 08:15:17;;;;;;;12.85;3.45;;;;;;;27.08;40.32;100419.31;5003964;28;20146;-73
2022/06/24 08:17:42;;;;;;;7.75;3.50;;;;;;;26.89;39.92;100412.59;5009963;28;20025;-73
2022/06/24 08:20:09;;;;;;;5.95;3.38;;;;;;;26.79;39.75;100405.09;5002675;28;20029;-73
2022/06/24 08:22:34;;;;;;;6.30;3.58;;;;;;;27.12;40.04;100408.44;5003404;28;20021;-72
2022/06/24 08:25:01;;;;;;;10.00;3.55;;;;;;;27.20;39.62;100399.56;5061973;28;20021;-73
2022/06/24 08:27:26;;;;;;;9.75;3.17;;;;;;;27.00;39.88;100394.81;5045740;28;20031;-74
2022/06/24 08:29:52;;;;;;;7.40;3.08;;;;;;;27.09;40.07;100404.28;5052195;28;20029;-74
2022/06/24 08:32:17;;;;;;;11.00;3.72;;;;;;;27.46;39.64;100392.81;5043429;28;20021;-72
2022/06/24 08:34:42;;;;;;;8.88;3.60;;;;;;;27.93;39.30;100385.19;5048240;28;20078;-73
2022/06/24 08:37:08;;;;;;;5.18;3.10;;;;;;;27.50;39.06;100377.22;5043466;28;20131;-73
2022/06/24 08:39:33;;;;;;;8.15;3.53;;;;;;;27.50;39.30;100371.66;5042793;28;20025;-72
2022/06/24 08:42:02;;;;;;;8.15;3.83;;;;;;;28.15;38.60;100360.56;5040480;28;20123;-73
2022/06/24 08:44:27;;;;;;;9.93;3.30;;;;;;;27.59;39.30;100364.41;5039003;28;20138;-73
2022/06/24 08:46:53;;;;;;;7.25;3.58;;;;;;;28.50;37.51;100356.75;5040640;28;20025;-73
2022/06/24 08:49:19;;;;;;;10.57;3.63;;;;;;;28.11;38.02;100348.34;5044972;28;20535;-72
2022/06/24 08:51:46;;;;;;;24.63;3.50;;;;;;;28.44;37.68;100351.50;5066049;28;20052;-72
2022/06/24 08:54:12;;;;;;;9.88;3.63;;;;;;;28.50;36.92;100339.19;5041453;28;20388;-73
2022/06/24 08:56:37;;;;;;;11.70;4.05;;;;;;;28.77;37.21;100339.53;5047357;28;20067;-73
2022/06/24 08:59:03;;;;;;;9.20;3.80;;;;;;;29.02;36.23;100340.44;5056020;28;20040;-72
2022/06/24 09:01:28;;;;;;;15.20;3.78;;;;;;;28.84;36.62;100328.84;5040428;28;20063;-70
2022/06/24 09:03:53;;;;;;;7.78;3.10;;;;;;;29.09;35.60;100324.19;5043608;28;20028;-70
2022/06/24 09:06:20;;;;;;;11.32;3.58;;;;;;;28.72;34.77;100325.63;5039728;28;20063;-70
2022/06/24 09:08:48;;;;;;;7.93;2.90;;;;;;;28.88;35.08;100324.34;5062216;28;20123;-70
2022/06/24 09:11:14;;;;;;;13.32;3.22;;;;;;;28.95;34.47;100326.00;5039751;28;20021;-70
2022/06/24 09:13:45;;;;;;;14.27;3.67;;;;;;;29.20;34.46;100314.56;5045653;28;20104;-70
2022/06/24 09:16:12;;;;;;;14.10;2.95;;;;;;;29.55;33.96;100320.91;5039618;28;20021;-71
2022/06/24 09:18:39;;;;;;;6.55;3.35;;;;;;;29.74;34.09;100313.41;5039539;28;20433;-71
2022/06/24 09:21:05;;;;;;;10.25;3.50;;;;;;;29.97;33.69;100312.50;5038124;28;20028;-71
2022/06/24 09:23:30;;;;;;;7.78;3.92;;;;;;;29.93;33.57;100311.47;5039641;28;20033;-71
2022/06/24 09:26:00;;;;;;;11.27;4.18;;;;;;;29.64;34.14;100307.94;5039791;28;20386;-70
2022/06/24 09:28:31;;;;;;;7.65;3.70;;;;;;;29.89;34.20;100307.59;5041289;28;20035;-71
2022/06/24 09:31:01;;;;;;;5.50;3.40;;;;;;;30.07;34.10;100305.13;5039271;28;20028;-71
2022/06/24 09:33:27;;;;;;;13.73;3.70;;;;;;;30.34;33.85;100305.28;5029565;28;20052;-71
2022/06/24 09:36:02;;;;;;;11.48;3.45;;;;;;;30.32;34.10;100295.53;5033865;28;20044;-71
2022/06/24 09:38:28;;;;;;;5.68;3.40;;;;;;;30.59;33.52;100294.81;5039442;28;20021;-70
2022/06/24 09:41:05;;;;;;;13.10;4.05;;;;;;;30.47;34.07;100303.69;5039577;28;20037;-71
2022/06/24 09:43:31;;;;;;;10.15;3.53;;;;;;;30.52;33.25;100284.88;5041712;28;20145;-70
2022/06/24 09:45:59;;;;;;;6.47;3.17;;;;;;;30.85;33.38;100293.25;5021380;28;20518;-71
2022/06/24 09:48:37;;;;;;;15.43;3.75;;;;;;;31.18;33.19;100290.41;5035322;28;20014;-71
2022/06/24 09:51:04;;;;;;;9.20;3.78;;;;;;;31.10;33.19;100288.28;5050162;28;20075;-71
2022/06/24 09:53:35;;;;;;;15.07;4.28;;;;;;;31.49;32.21;100287.81;5040391;28;20081;-70
2022/06/24 09:56:02;;;;;;;14.25;3.35;;;;;;;30.97;32.87;100285.19;5039302;28;20044;-71
2022/06/24 09:58:28;;;;;;;12.30;3.92;;;;;;;31.04;32.83;100280.03;5044870;28;20062;-71
2022/06/24 10:00:54;;;;;;;9.10;3.75;;;;;;;31.04;32.40;100280.03;5044116;28;20052;-71
2022/06/24 10:03:19;;;;;;;10.25;4.30;;;;;;;31.29;32.37;100281.50;5038275;28;20493;-71
2022/06/24 10:05:48;;;;;;;13.80;3.50;;;;;;;31.51;31.90;100277.97;5037628;28;20101;-71
2022/06/24 10:08:18;;;;;;;7.38;3.83;;;;;;;31.10;32.40;100271.50;5039844;28;20013;-71
2022/06/24 10:10:49;;;;;;;10.00;3.50;;;;;;;31.29;32.33;100278.69;5045473;28;20025;-71
2022/06/24 10:13:34;;;;;;;8.65;3.67;;;;;;;31.84;31.42;100275.03;5036319;28;20025;-71
2022/06/24 10:16:01;;;;;;;8.68;3.10;;;;;;;31.88;31.31;100281.66;5049275;28;20032;-72
2022/06/24 10:18:32;;;;;;;14.02;3.70;;;;;;;32.35;30.92;100285.06;5038643;28;20021;-72
2022/06/24 10:20:59;;;;;;;4.82;3.33;;;;;;;32.39;30.48;100286.06;5040815;28;20025;-71
2022/06/24 10:23:44;;;;;;;12.50;3.65;;;;;;;31.91;31.19;100281.03;5054771;28;20039;-70
2022/06/24 10:26:27;;;;;;;8.43;2.97;;;;;;;32.54;30.64;100288.50;5039982;28;20110;-71
2022/06/24 10:29:03;;;;;;;11.00;3.80;;;;;;;32.56;30.06;100286.19;5036567;28;20120;-71
2022/06/24 10:31:52;;;;;;;7.47;3.20;;;;;;;32.13;29.84;100278.25;5042857;28;20123;-70
2022/06/24 10:34:27;;;;;;;10.25;3.67;;;;;;;31.81;30.69;100286.84;5034193;28;20024;-71
2022/06/24 10:37:04;;;;;;;18.10;3.65;;;;;;;31.75;30.08;100283.31;5035187;28;20032;-71
2022/06/24 10:39:32;;;;;;;10.90;3.22;;;;;;;31.79;30.36;100284.38;5037661;28;20085;-71
2022/06/24 10:42:02;;;;;;;6.65;2.83;;;;;;;32.10;29.90;100278.91;5040612;28;20111;-71
2022/06/24 10:44:49;;;;;;;11.52;3.65;;;;;;;32.40;29.51;100276.50;5039147;28;20017;-70
2022/06/24 10:47:15;;;;;;;9.27;3.17;;;;;;;31.97;30.00;100268.56;5028905;28;20381;-71
2022/06/24 10:49:55;;;;;;;5.15;3.10;;;;;;;32.21;29.70;100273.03;5038866;28;20240;-72
2022/06/24 10:52:34;;;;;;;17.42;3.50;;;;;;;32.08;29.57;100270.00;5066200;28;20117;-71
2022/06/24 10:55:16;;;;;;;8.60;3.25;;;;;;;32.29;29.73;100266.69;5040237;28;20033;-71
2022/06/24 10:57:54;;;;;;;16.73;4.13;;;;;;;32.57;29.30;100262.63;5039710;28;20084;-71
2022/06/24 11:00:26;;;;;;;13.13;3.92;;;;;;;32.39;29.65;100258.03;5042777;28;20046;-71
2022/06/24 11:02:57;;;;;;;13.65;3.38;;;;;;;32.81;29.41;100255.84;5057430;27;20044;-71
2022/06/24 11:05:25;;;;;;;9.23;3.53;;;;;;;33.12;29.11;100256.66;5039849;28;20016;-71
2022/06/24 11:07:51;;;;;;;13.30;3.28;;;;;;;32.74;29.26;100255.47;5041668;28;20036;-71
2022/06/24 11:10:21;;;;;;;5.97;3.15;;;;;;;33.54;28.72;100253.50;5043743;28;20025;-71
2022/06/24 11:12:52;;;;;;;10.18;3.92;;;;;;;32.85;29.00;100248.41;5036338;28;20063;-71
2022/06/24 11:15:18;;;;;;;12.32;4.10;;;;;;;32.81;29.93;100247.44;5035257;28;20042;-71
2022/06/24 11:17:43;;;;;;;9.45;4.47;;;;;;;32.48;30.32;100239.31;5038649;28;20143;-71
2022/06/24 11:20:11;;;;;;;12.45;4.07;;;;;;;31.95;30.88;100231.66;5037350;28;20119;-71
2022/06/24 11:22:47;;;;;;;6.45;3.53;;;;;;;32.40;30.40;100234.47;5039240;28;20055;-71
2022/06/24 11:25:14;;;;;;;5.10;3.42;;;;;;;32.53;30.28;100236.38;5035244;28;20028;-71
2022/06/24 11:27:40;;;;;;;10.27;3.97;;;;;;;32.34;30.01;100232.94;5038941;28;20025;-71
2022/06/24 11:30:07;;;;;;;6.00;3.97;;;;;;;33.09;30.09;100231.22;5050091;28;20045;-71
2022/06/24 11:32:56;;;;;;;12.63;4.00;;;;;;;33.28;29.01;100230.97;5039404;28;20044;-71